Flight Track Log - Related Links

Times and Time Zones

All times are in EST time to prevent confusion due to time zone crossing. See the LYM752 flight status page for this flight to view local times or setup timezone preferences in your user account.

Time Position Orientation Groundspeed Altitude Reporting Facility
EST Latitude Longitude Course Direction KTS MPH feet Rate Location/Type
Thu 01:08:23 PM 37.9303 -100.7328 306° West 109 125 3,200  Level Kansas City Center
Thu 01:09:25 PM 37.9475 -100.7633 306° West 97 112 4,600 1,113 Climbing Kansas City Center
Thu 01:10:27 PM 37.9617 -100.7925 302° West 98 113 5,500 1,113 Climbing Kansas City Center
Thu 01:11:29 PM 37.9817 -100.8292 305° West 107 123 6,900 1,161 Climbing Kansas City Center
Thu 01:12:31 PM 37.9967 -100.8619 300° West 111 128 7,900 1,161 Climbing Kansas City Center
Thu 01:13:33 PM 38.0158 -100.9017 301° West 115 132 9,300 1,016 Climbing Kansas City Center
Thu 01:14:35 PM 38.0306 -100.9353 299° West 115 132 10,000 339 Climbing Kansas City Center
Thu 01:15:37 PM 38.0547 -100.9806 304° West 128 147 10,000  Level Kansas City Center
Thu 01:16:39 PM 38.0761 -101.0239 302° West 142 163 10,000 48 Level Kansas City Center
Thu 01:17:41 PM 38.1022 -101.0742 303° West 149 171 10,100 48 Climbing Kansas City Center
Thu 01:18:43 PM 38.1250 -101.1153 305° West 150 173 10,100 -48 Level Kansas City Center
Thu 01:19:45 PM 38.1442 -101.1603 298° West 150 173 10,000 -94 Descending Kansas City Center
Thu 01:20:50 PM 38.1700 -101.2083 304° West 150 173 9,900 -47 Descending Denver Center
Thu 01:21:52 PM 38.1958 -101.2558 305° West 147 169 9,900  Level Denver Center
Thu 01:22:54 PM 38.2178 -101.2967 304° West 147 169 9,900 48 Level Denver Center
Thu 01:23:56 PM 38.2433 -101.3447 304° West 146 168 10,000  Climbing Denver Center
Thu 01:24:58 PM 38.2639 -101.3886 301° West 149 171 9,900 -48 Descending Denver Center
Thu 01:26:00 PM 38.2886 -101.4389 302° West 149 171 9,900  Level Denver Center
Thu 01:27:02 PM 38.3131 -101.4778 309° West 148 170 9,900  Level Denver Center
Thu 01:28:04 PM 38.3356 -101.5189 305° West 148 170 9,900  Level Denver Center
Thu 01:29:06 PM 38.3597 -101.5700 301° West 149 171 9,900  Level Denver Center
Thu 01:30:08 PM 38.3819 -101.6108 305° West 148 170 9,900  Level Denver Center
Thu 01:31:10 PM 38.4061 -101.6608 302° West 148 170 9,900  Level Denver Center
Thu 01:32:12 PM 38.4272 -101.7056 301° West 150 173 9,900 48 Level Denver Center
Thu 01:33:15 PM 38.4494 -101.7594 298° West 152 175 10,000  Climbing Denver Center
Thu 01:34:17 PM 38.4736 -101.7975 309° West 149 171 9,900  Descending Denver Center
Thu 01:35:19 PM 38.5011 -101.8444 307° West 149 171 10,000 48 Climbing Denver Center
Thu 01:36:21 PM 38.5206 -101.8875 300° West 146 168 10,000  Level Denver Center
Thu 01:37:23 PM 38.5478 -101.9381 305° West 151 174 10,000  Level Denver Center
Thu 01:38:25 PM 38.5703 -101.9808 304° West 152 175 10,000  Level Denver Center
Thu 01:39:27 PM 38.5939 -102.0336 300° West 152 175 10,000  Level Denver Center
Thu 01:40:29 PM 38.6125 -102.0722 302° West 153 176 10,000  Level Denver Center
Thu 01:41:31 PM 38.6403 -102.1281 303° West 151 174 10,000  Level Denver Center
Thu 01:42:33 PM 38.6603 -102.1725 300° West 151 174 10,000  Level Denver Center
Thu 01:43:35 PM 38.6853 -102.2228 303° West 150 173 10,000  Level Denver Center
Thu 01:44:37 PM 38.7058 -102.2675 301° West 151 174 10,000  Level Denver Center
Thu 01:45:39 PM 38.7306 -102.3183 302° West 151 174 10,000  Level Denver Center
Thu 01:46:41 PM 38.7528 -102.3606 304° West 150 173 10,000  Level Denver Center
Thu 01:47:44 PM 38.7769 -102.4117 301° West 152 175 10,000  Level Denver Center
Thu 01:48:46 PM 38.7961 -102.4536 300° West 145 167 10,000  Level Denver Center
Thu 01:49:48 PM 38.8214 -102.5025 304° West 149 171 10,000  Level Denver Center
Thu 01:50:50 PM 38.8417 -102.5453 301° West 148 170 10,000 -48 Level Denver Center
Thu 01:51:52 PM 38.8686 -102.5928 306° West 147 169 9,900  Descending Denver Center
Thu 01:52:54 PM 38.8894 -102.6367 301° West 148 170 10,000 48 Climbing Denver Center
Thu 01:53:56 PM 38.9122 -102.6903 299° West 151 174 10,000  Level Denver Center
Thu 01:54:58 PM 38.9342 -102.7353 302° West 153 176 10,000  Level Denver Center
Thu 01:56:00 PM 38.9564 -102.7806 302° West 154 177 10,000 -48 Level Denver Center
Thu 01:57:02 PM 38.9833 -102.8314 304° West 155 178 9,900  Descending Denver Center
Thu 01:58:04 PM 39.0053 -102.8750 303° West 154 177 10,000 48 Climbing Denver Center
Thu 01:59:06 PM 39.0314 -102.9256 304° West 153 176 10,000  Level Denver Center
Thu 02:00:08 PM 39.0525 -102.9708 301° West 153 176 10,000  Level Denver Center
Thu 02:01:11 PM 39.0769 -103.0250 300° West 154 177 10,000  Level Denver Center
Thu 02:04:17 PM 39.1489 -103.1706 302° West 156 180 10,000  Level Denver Center
Thu 02:05:19 PM 39.1717 -103.2153 303° West 151 174 10,000  Level Denver Center
Thu 02:06:21 PM 39.1936 -103.2631 301° West 154 177 10,000  Level Denver Center
Thu 02:07:23 PM 39.2181 -103.3117 303° West 160 184 10,000  Level Denver Center
Thu 02:08:25 PM 39.2444 -103.3700 300° West 158 182 10,000  Level Denver Center
Thu 02:09:27 PM 39.2669 -103.4189 301° West 158 182 10,000  Level Denver Center
Thu 02:10:29 PM 39.2886 -103.4689 299° West 159 183 10,000  Level Denver Center
Thu 02:11:31 PM 39.3142 -103.5131 307° West 156 180 10,000  Level Denver Center
Thu 02:12:33 PM 39.3392 -103.5625 303° West 163 188 10,000  Level Denver Center
Thu 02:13:35 PM 39.3639 -103.6117 303° West 163 188 10,000  Level Denver Center
Thu 02:14:37 PM 39.3914 -103.6706 301° West 160 184 10,000  Level Denver Center
Thu 02:15:40 PM 39.4139 -103.7200 301° West 161 185 10,000  Level Denver Center
Thu 02:16:42 PM 39.4400 -103.7683 305° West 164 189 10,000 -48 Level Denver Center
Thu 02:17:44 PM 39.4653 -103.8233 301° West 165 190 9,900  Descending Denver Center
Thu 02:18:46 PM 39.4906 -103.8725 304° West 165 190 10,000 48 Climbing Denver Center
Thu 02:19:48 PM 39.5161 -103.9286 301° West 169 194 10,000  Level Denver Center
Thu 02:20:50 PM 39.5394 -103.9797 301° West 166 191 10,000 48 Level Denver Center
Thu 02:21:52 PM 39.5758 -104.0228 318° Northwest 167 192 10,100  Climbing Denver Center
Thu 02:22:54 PM 39.6119 -104.0619 320° Northwest 168 193 10,000 -145 Descending Denver Center
Thu 02:23:56 PM 39.6500 -104.0989 323° Northwest 171 197 9,800 -387 Descending Denver Center
Thu 02:24:58 PM 39.6919 -104.1447 320° Northwest 182 209 9,200 -435 Descending Denver Center
Thu 02:26:00 PM 39.7325 -104.1875 321° Northwest 186 214 8,900 -145 Descending Denver Center
Thu 02:27:02 PM 39.7731 -104.2294 322° Northwest 175 201 8,900 -242 Level Denver Center
Thu 02:28:04 PM 39.8125 -104.2683 323° Northwest 177 204 8,400 -672 Descending Denver Center
Thu 02:29:07 PM 39.8592 -104.3183 321° Northwest 199 229 7,500 -720 Descending Denver Center
Thu 02:30:09 PM 39.9014 -104.3653 320° Northwest 201 231 6,900 -242 Descending Denver Center
Thu 02:31:11 PM 39.9436 -104.4072 323° Northwest 182 209 7,000 50 Climbing Denver Center
Thu 02:32:10 PM 39.9833 -104.4500 320° Northwest 177 204 7,000 -50 Level Denver TRACON
Thu 02:33:10 PM 40.0000 -104.5000 294° West 178 205 6,900  Descending Denver TRACON
Thu 02:34:10 PM 40.0000 -104.5667 270° West 174 200 7,000 50 Climbing Denver TRACON
Thu 02:35:10 PM 39.9667 -104.6167 229° Southwest 166 191 7,000 -100 Level Denver TRACON
Thu 02:36:10 PM 39.9333 -104.6500 217° Southwest 171 197 6,800 -446 Descending Denver TRACON
Thu 02:37:11 PM 39.8833 -104.6667 194° South 154 177 6,100 -622 Descending Denver TRACON
Thu 02:38:25 PM 39.8450 -104.6608 173° South 135 155 5,400 -568 Descending Denver Center
Thu 02:40:00 PM 39.8617 -104.6732 330° Northwest  Level Estimated
Thu 02:47:00 PM 39.8617 -104.6732 142° Southeast  Level Estimated
Thu 02:48:00 PM 39.8617 -104.6732 142° Southeast  Level Estimated

Login

Don't have an account? Register now (free) for customized features, flight alerts, and more!